createdAt,value
2023-03-27T00:01:13.109Z,1.60
2023-03-27T00:03:40.616Z,1.70
2023-03-27T00:06:11.625Z,1.67
2023-03-27T00:08:39.067Z,1.50
2023-03-27T00:11:08.297Z,1.80
2023-03-27T00:13:42.512Z,1.60
2023-03-27T00:16:18.537Z,1.83
2023-03-27T00:18:46.131Z,1.97
2023-03-27T00:21:13.500Z,2.30
2023-03-27T00:23:40.742Z,1.40
2023-03-27T00:26:07.953Z,2.10
2023-03-27T00:28:35.713Z,1.63
2023-03-27T00:31:03.015Z,1.60
2023-03-27T00:33:30.040Z,1.70
2023-03-27T00:35:57.113Z,1.60
2023-03-27T00:38:24.603Z,1.63
2023-03-27T00:40:54.939Z,1.90
2023-03-27T00:43:24.845Z,1.50
2023-03-27T00:45:55.490Z,1.60
2023-03-27T00:48:24.998Z,2.00
2023-03-27T00:50:53.345Z,1.77
2023-03-27T00:53:28.123Z,1.93
2023-03-27T00:56:04.274Z,1.87
2023-03-27T00:58:37.343Z,1.70
2023-03-27T01:01:05.809Z,1.60
2023-03-27T01:03:34.890Z,1.87
2023-03-27T01:06:03.266Z,1.70
2023-03-27T01:08:33.912Z,1.60
2023-03-27T01:11:38.211Z,1.70
2023-03-27T01:14:26.882Z,1.70
2023-03-27T01:17:08.866Z,1.73
2023-03-27T01:19:59.547Z,1.50
2023-03-27T01:22:44.703Z,1.57
2023-03-27T01:25:44.778Z,1.43
2023-03-27T01:28:26.834Z,1.40
2023-03-27T01:31:16.243Z,1.80
2023-03-27T01:34:04.148Z,1.53
2023-03-27T01:37:02.954Z,1.90
2023-03-27T01:39:32.609Z,1.40
2023-03-27T01:42:18.611Z,1.70
2023-03-27T01:45:10.720Z,1.40
2023-03-27T01:47:45.012Z,1.40
2023-03-27T01:50:19.597Z,1.40
2023-03-27T01:52:54.674Z,1.60
2023-03-27T01:55:26.489Z,1.37
2023-03-27T01:58:03.333Z,2.87
2023-03-27T02:00:51.996Z,1.90
2023-03-27T02:03:27.128Z,1.67
2023-03-27T02:06:00.579Z,1.80
2023-03-27T02:08:33.548Z,1.57
2023-03-27T02:11:01.144Z,1.47
2023-03-27T02:13:45.658Z,2.43
2023-03-27T02:16:18.604Z,2.20
2023-03-27T02:18:54.478Z,2.03
2023-03-27T02:21:23.798Z,2.50
2023-03-27T02:23:51.073Z,1.90
2023-03-27T02:26:18.273Z,2.00
2023-03-27T02:28:52.108Z,2.20
2023-03-27T02:31:40.418Z,2.20
2023-03-27T02:34:57.318Z,2.47
2023-03-27T02:37:51.072Z,2.90
2023-03-27T02:40:40.467Z,2.27
2023-03-27T02:43:28.310Z,2.30
2023-03-27T02:45:55.333Z,2.40
2023-03-27T02:48:37.027Z,2.40
2023-03-27T02:51:30.840Z,1.90
2023-03-27T02:54:03.573Z,2.50
2023-03-27T02:56:34.043Z,2.77
2023-03-27T02:59:04.302Z,2.33
2023-03-27T03:01:33.300Z,2.27
2023-03-27T03:04:07.674Z,2.83
2023-03-27T03:06:35.003Z,2.30
2023-03-27T03:09:06.200Z,2.50
2023-03-27T03:11:39.616Z,2.07
2023-03-27T03:14:06.443Z,2.50
2023-03-27T03:16:33.619Z,2.17
2023-03-27T03:19:00.408Z,2.23
2023-03-27T03:21:27.260Z,2.80
2023-03-27T03:23:57.837Z,2.40
2023-03-27T03:26:27.348Z,2.10
2023-03-27T03:29:00.572Z,2.60
2023-03-27T03:31:28.375Z,2.77
2023-03-27T03:33:55.343Z,2.53
2023-03-27T03:36:22.149Z,2.67
2023-03-27T03:38:49.123Z,2.60
2023-03-27T03:41:16.507Z,3.50
2023-03-27T03:43:43.586Z,3.70
2023-03-27T03:46:10.672Z,4.23
2023-03-27T03:48:37.910Z,4.10
2023-03-27T03:51:05.144Z,3.53
2023-03-27T03:53:31.967Z,3.10
2023-03-27T03:55:58.955Z,3.10
2023-03-27T03:58:34.110Z,3.40
2023-03-27T04:01:03.142Z,2.87
2023-03-27T04:03:32.872Z,2.43
2023-03-27T04:06:07.708Z,2.60
2023-03-27T04:08:35.581Z,2.43
2023-03-27T04:11:02.431Z,3.20
2023-03-27T04:13:29.270Z,3.20
2023-03-27T04:15:56.479Z,2.80
2023-03-27T04:18:32.796Z,2.80
2023-03-27T04:21:00.351Z,2.70
2023-03-27T04:23:30.480Z,2.70
2023-03-27T04:26:02.251Z,2.60
2023-03-27T04:28:30.616Z,2.87
2023-03-27T04:30:58.628Z,2.80
2023-03-27T04:33:25.961Z,2.60
2023-03-27T04:36:06.068Z,2.40
2023-03-27T04:38:39.483Z,3.07
2023-03-27T04:41:07.049Z,2.67
2023-03-27T04:43:37.026Z,3.20
2023-03-27T04:46:06.716Z,2.30
2023-03-27T04:48:33.682Z,3.67
2023-03-27T04:51:00.455Z,2.87
2023-03-27T04:53:30.442Z,2.60
2023-03-27T04:55:58.448Z,9.77
2023-03-27T04:58:29.623Z,14.17
2023-03-27T05:00:57.914Z,12.37
2023-03-27T05:03:26.353Z,10.63
2023-03-27T05:05:53.957Z,4.63
2023-03-27T05:08:21.008Z,4.27
2023-03-27T05:10:48.178Z,4.90
2023-03-27T05:13:15.038Z,4.63
2023-03-27T05:15:42.001Z,3.80
2023-03-27T05:18:09.330Z,4.13
2023-03-27T05:20:37.225Z,4.00
2023-03-27T05:23:04.610Z,4.07
2023-03-27T05:25:32.974Z,3.50
2023-03-27T05:28:00.965Z,2.97
2023-03-27T05:30:28.779Z,3.73
2023-03-27T05:32:59.546Z,3.70
2023-03-27T05:35:28.784Z,2.97
2023-03-27T05:37:59.106Z,3.10
2023-03-27T05:40:27.636Z,4.10
2023-03-27T05:42:56.711Z,4.23
2023-03-27T05:45:24.533Z,3.73
2023-03-27T05:47:56.999Z,5.90
2023-03-27T05:50:28.813Z,6.50
2023-03-27T05:53:04.538Z,5.70
2023-03-27T05:55:32.500Z,4.77
2023-03-27T05:57:59.919Z,6.20
2023-03-27T06:00:27.614Z,4.50
2023-03-27T06:02:57.420Z,6.50
2023-03-27T06:05:30.069Z,4.73
2023-03-27T06:07:59.323Z,8.83
2023-03-27T06:10:28.564Z,11.13
2023-03-27T06:13:00.924Z,6.17
2023-03-27T06:15:27.975Z,5.90
2023-03-27T06:17:54.956Z,4.90
2023-03-27T06:20:23.035Z,6.10
2023-03-27T06:22:52.982Z,2.50
2023-03-27T06:25:20.578Z,2.33
2023-03-27T06:27:49.745Z,2.20
2023-03-27T06:30:22.314Z,1.50
2023-03-27T06:32:51.728Z,1.90
2023-03-27T06:35:20.192Z,1.63
2023-03-27T06:37:51.450Z,1.27
2023-03-27T06:40:24.470Z,1.93
2023-03-27T06:43:06.397Z,1.50
2023-03-27T06:45:36.374Z,1.73
2023-03-27T06:48:17.781Z,2.00
2023-03-27T06:50:49.665Z,1.30
2023-03-27T06:55:49.342Z,1.33
2023-03-27T06:58:19.169Z,1.40
2023-03-27T07:00:49.124Z,1.33
2023-03-27T07:03:16.434Z,1.00
2023-03-27T07:05:43.511Z,1.53
2023-03-27T07:08:23.216Z,1.63
2023-03-27T07:11:03.835Z,1.30
2023-03-27T07:13:35.077Z,1.73
2023-03-27T07:16:01.930Z,1.40
2023-03-27T07:18:28.942Z,1.70
2023-03-27T07:20:55.951Z,1.67
2023-03-27T07:23:25.964Z,1.90
2023-03-27T07:25:58.063Z,1.60
2023-03-27T07:28:25.140Z,1.67
2023-03-27T07:30:52.374Z,1.40
2023-03-27T07:33:19.437Z,1.33
2023-03-27T07:35:51.434Z,1.67
2023-03-27T07:38:18.544Z,1.50
2023-03-27T07:40:46.678Z,1.50
2023-03-27T07:43:14.385Z,1.43
2023-03-27T07:45:42.295Z,1.53
2023-03-27T07:48:17.706Z,1.33
2023-03-27T07:50:45.390Z,0.80
2023-03-27T07:53:32.917Z,1.00
2023-03-27T07:55:59.448Z,0.90
2023-03-27T07:58:26.986Z,1.50
2023-03-27T08:00:54.533Z,1.40
2023-03-27T08:03:26.164Z,1.00
2023-03-27T08:05:55.459Z,1.50
2023-03-27T08:08:23.390Z,0.97
2023-03-27T08:10:51.144Z,0.70
2023-03-27T08:13:18.635Z,0.77
2023-03-27T08:15:45.669Z,0.63
2023-03-27T08:18:12.560Z,0.90
2023-03-27T08:20:39.662Z,1.23
2023-03-27T08:23:06.821Z,1.07
2023-03-27T08:25:34.792Z,1.10
2023-03-27T08:28:03.055Z,1.10
2023-03-27T08:30:30.904Z,0.97
2023-03-27T08:33:00.353Z,0.63
2023-03-27T08:35:27.318Z,0.90
2023-03-27T08:37:57.705Z,0.80
2023-03-27T08:40:28.644Z,0.90
2023-03-27T08:43:03.868Z,0.90
2023-03-27T08:45:43.403Z,0.70
2023-03-27T08:48:21.191Z,0.50
2023-03-27T08:50:57.311Z,0.60
2023-03-27T08:53:39.204Z,0.70
2023-03-27T08:56:07.192Z,0.80
2023-03-27T08:58:34.732Z,0.50
2023-03-27T09:01:09.840Z,0.30
2023-03-27T09:03:44.626Z,0.33
2023-03-27T09:06:38.437Z,0.47
2023-03-27T09:09:15.239Z,0.30
2023-03-27T09:12:06.440Z,0.20
2023-03-27T09:14:40.646Z,0.40
2023-03-27T09:17:17.357Z,0.40
2023-03-27T09:19:58.812Z,0.40
2023-03-27T09:22:30.413Z,0.50
2023-03-27T09:25:03.761Z,0.47
2023-03-27T09:27:34.634Z,0.63
2023-03-27T09:30:18.957Z,0.70
2023-03-27T09:32:49.006Z,1.10
2023-03-27T09:35:20.505Z,0.73
2023-03-27T09:37:50.823Z,1.00
2023-03-27T09:40:41.304Z,1.07
2023-03-27T09:43:15.175Z,1.10
2023-03-27T09:45:44.380Z,1.00
2023-03-27T09:48:34.306Z,1.00
2023-03-27T09:51:02.562Z,1.07
2023-03-27T09:53:30.382Z,1.17
2023-03-27T09:56:05.678Z,1.20
2023-03-27T09:58:49.351Z,1.27
2023-03-27T10:01:20.122Z,1.30
2023-03-27T10:03:55.673Z,1.07
2023-03-27T10:06:31.815Z,0.90
2023-03-27T10:09:07.548Z,1.20
2023-03-27T10:11:36.141Z,1.20
2023-03-27T10:14:14.864Z,1.33
2023-03-27T10:16:42.745Z,1.10
2023-03-27T10:19:27.933Z,1.30
2023-03-27T10:21:59.132Z,1.50
2023-03-27T10:24:35.025Z,1.73
2023-03-27T10:27:08.566Z,1.50
2023-03-27T10:29:39.667Z,1.03
2023-03-27T10:32:08.279Z,1.00
2023-03-27T10:34:52.837Z,1.30
2023-03-27T10:37:27.562Z,1.50
2023-03-27T10:39:57.071Z,1.33
2023-03-27T10:42:27.478Z,1.40
2023-03-27T10:44:57.747Z,1.37
2023-03-27T10:47:32.126Z,1.40
2023-03-27T10:50:31.068Z,1.30
2023-03-27T10:53:12.500Z,1.37
2023-03-27T10:55:52.108Z,1.27
2023-03-27T10:58:28.218Z,1.30
2023-03-27T11:01:23.405Z,1.20
2023-03-27T11:03:57.257Z,1.17
2023-03-27T11:06:31.586Z,1.10
2023-03-27T11:09:17.500Z,1.10
2023-03-27T11:12:08.447Z,1.00
2023-03-27T11:14:42.972Z,1.97
2023-03-27T11:17:14.935Z,1.03
2023-03-27T11:20:07.599Z,0.90
2023-03-27T11:22:46.358Z,0.90
2023-03-27T11:25:25.324Z,0.70
2023-03-27T11:28:01.561Z,0.57
2023-03-27T11:30:52.474Z,0.67
2023-03-27T11:33:54.541Z,0.53
2023-03-27T11:36:37.814Z,0.77
2023-03-27T11:39:21.134Z,0.50
2023-03-27T11:41:52.695Z,0.70
2023-03-27T11:44:20.455Z,0.73
2023-03-27T11:47:11.675Z,0.70
2023-03-27T11:50:06.336Z,0.63
2023-03-27T11:52:42.371Z,0.63
2023-03-27T11:55:23.140Z,0.70
2023-03-27T11:58:08.825Z,0.63
2023-03-27T12:00:52.931Z,0.70
2023-03-27T12:03:46.086Z,0.50
2023-03-27T12:06:37.772Z,0.80
2023-03-27T12:09:40.710Z,0.60
2023-03-27T12:12:27.880Z,0.80
2023-03-27T12:15:24.199Z,1.43
2023-03-27T12:18:35.318Z,1.10
2023-03-27T12:21:20.720Z,1.10
2023-03-27T12:24:15.638Z,1.07
2023-03-27T12:27:08.467Z,1.20
2023-03-27T12:29:49.478Z,1.10
2023-03-27T12:32:34.847Z,0.80
2023-03-27T12:35:21.637Z,0.90
2023-03-27T12:37:50.615Z,1.10
2023-03-27T12:40:29.299Z,1.27
2023-03-27T12:43:20.976Z,1.10
2023-03-27T12:46:09.623Z,1.27
2023-03-27T12:48:52.040Z,0.80
2023-03-27T12:51:19.981Z,1.33
2023-03-27T12:53:54.209Z,1.20
2023-03-27T12:56:33.597Z,1.20
2023-03-27T12:59:01.775Z,1.43
2023-03-27T13:01:52.375Z,1.30
2023-03-27T13:04:28.692Z,1.60
2023-03-27T13:07:27.806Z,1.17
2023-03-27T13:10:10.630Z,1.07
2023-03-27T13:13:10.781Z,1.10
2023-03-27T13:15:52.889Z,1.37
2023-03-27T13:18:54.864Z,1.10
2023-03-27T13:21:57.197Z,1.20
2023-03-27T13:24:55.218Z,1.60
2023-03-27T13:27:37.499Z,1.40
2023-03-27T13:30:06.161Z,1.03
2023-03-27T13:32:41.165Z,0.80
2023-03-27T13:35:21.381Z,1.13
2023-03-27T13:37:52.233Z,1.10
2023-03-27T13:40:26.831Z,1.10
2023-03-27T13:43:28.253Z,1.07
2023-03-27T13:45:59.176Z,1.30
2023-03-27T13:48:38.799Z,1.07
2023-03-27T13:51:34.528Z,1.10
2023-03-27T13:54:29.750Z,0.80
2023-03-27T13:57:03.754Z,1.00
2023-03-27T14:00:14.370Z,1.33
2023-03-27T14:02:58.615Z,1.33
2023-03-27T14:06:09.937Z,1.40
2023-03-27T14:08:52.439Z,1.60
2023-03-27T14:11:38.800Z,1.50
2023-03-27T14:14:23.046Z,1.30
2023-03-27T14:17:07.251Z,1.43
2023-03-27T14:19:39.588Z,0.97
2023-03-27T14:22:40.688Z,0.77
2023-03-27T14:25:20.578Z,0.60
2023-03-27T14:27:54.686Z,0.60
2023-03-27T14:30:27.478Z,0.90
2023-03-27T14:32:56.832Z,0.80
2023-03-27T14:35:33.476Z,0.80
2023-03-27T14:38:03.790Z,1.27
2023-03-27T14:40:34.729Z,1.00
2023-03-27T14:43:02.458Z,1.20
2023-03-27T14:45:40.468Z,1.40
2023-03-27T14:48:17.574Z,1.20
2023-03-27T14:50:46.648Z,1.20
2023-03-27T14:53:19.227Z,1.50
2023-03-27T14:55:48.664Z,1.70
2023-03-27T14:58:19.567Z,1.23
2023-03-27T15:00:52.101Z,1.23
2023-03-27T15:03:23.411Z,1.70
2023-03-27T15:06:04.741Z,1.17
2023-03-27T15:08:38.918Z,1.30
2023-03-27T15:11:16.455Z,1.50
2023-03-27T15:13:46.257Z,1.10
2023-03-27T15:16:21.572Z,1.30
2023-03-27T15:19:00.653Z,1.50
2023-03-27T15:21:56.616Z,1.20
2023-03-27T15:24:43.605Z,1.70
2023-03-27T15:27:32.306Z,1.67
2023-03-27T15:30:11.755Z,1.63
2023-03-27T15:32:50.446Z,1.70
2023-03-27T15:35:34.611Z,1.63
2023-03-27T15:38:03.596Z,1.37
2023-03-27T15:40:36.985Z,1.73
2023-03-27T15:43:16.657Z,1.40
2023-03-27T15:46:04.956Z,1.00
2023-03-27T15:48:32.515Z,1.10
2023-03-27T15:51:08.015Z,1.20
2023-03-27T15:53:39.272Z,1.20
2023-03-27T15:56:24.595Z,1.43
2023-03-27T15:58:53.252Z,1.23
2023-03-27T16:01:23.373Z,1.17
2023-03-27T16:03:51.663Z,1.20
2023-03-27T16:06:33.752Z,1.10
2023-03-27T16:09:01.859Z,1.30
2023-03-27T16:11:40.226Z,1.27
2023-03-27T16:14:39.169Z,1.40
2023-03-27T16:17:10.005Z,1.47
2023-03-27T16:19:50.119Z,1.27
2023-03-27T16:22:24.772Z,1.30
2023-03-27T16:24:52.482Z,1.53
2023-03-27T16:27:24.085Z,1.40
2023-03-27T16:29:51.866Z,1.60
2023-03-27T16:32:21.211Z,2.07
2023-03-27T16:34:51.486Z,1.73
2023-03-27T16:37:20.572Z,1.37
2023-03-27T16:39:47.688Z,2.10
2023-03-27T16:42:19.660Z,1.77
2023-03-27T16:44:46.925Z,1.97
2023-03-27T16:47:14.764Z,2.07
2023-03-27T16:49:42.301Z,1.77
2023-03-27T16:52:09.862Z,2.07
2023-03-27T16:54:37.828Z,1.50
2023-03-27T16:57:04.914Z,1.93
2023-03-27T16:59:32.089Z,2.53
2023-03-27T17:01:59.211Z,1.97
2023-03-27T17:04:26.235Z,1.67
2023-03-27T17:06:53.249Z,1.97
2023-03-27T17:09:20.229Z,2.67
2023-03-27T17:11:47.183Z,1.90
2023-03-27T17:14:17.377Z,6.53
2023-03-27T17:16:44.780Z,2.10
2023-03-27T17:19:11.703Z,3.90
2023-03-27T17:21:38.626Z,2.73
2023-03-27T17:24:05.458Z,2.07
2023-03-27T17:26:35.511Z,2.47
2023-03-27T17:29:05.519Z,1.80
2023-03-27T17:31:34.084Z,1.93
2023-03-27T17:34:01.523Z,2.30
2023-03-27T17:36:41.132Z,3.90
2023-03-27T17:39:08.373Z,2.20
2023-03-27T17:41:35.383Z,1.80
2023-03-27T17:44:02.516Z,2.20
2023-03-27T17:46:29.612Z,2.47
2023-03-27T17:48:58.052Z,2.60
2023-03-27T17:51:24.911Z,1.83
2023-03-27T17:53:51.924Z,1.70
2023-03-27T17:56:18.982Z,1.57
2023-03-27T17:58:48.899Z,1.40
2023-03-27T18:01:20.831Z,1.47
2023-03-27T18:03:48.748Z,1.37
2023-03-27T18:06:20.007Z,1.60
2023-03-27T18:08:47.397Z,2.00
2023-03-27T18:11:16.263Z,1.70
2023-03-27T18:13:43.401Z,1.43
2023-03-27T18:16:11.162Z,1.67
2023-03-27T18:18:39.520Z,1.43
2023-03-27T18:21:09.914Z,1.80
2023-03-27T18:23:45.600Z,1.60
2023-03-27T18:26:14.346Z,1.70
2023-03-27T18:28:41.429Z,1.90
2023-03-27T18:31:12.268Z,2.03
2023-03-27T18:33:39.184Z,2.63
2023-03-27T18:36:11.007Z,1.93
2023-03-27T18:38:40.275Z,1.90
2023-03-27T18:41:08.055Z,2.27
2023-03-27T18:43:41.160Z,1.77
2023-03-27T18:46:08.506Z,1.50
2023-03-27T18:48:36.067Z,1.83
2023-03-27T18:51:05.540Z,1.93
2023-03-27T18:53:32.548Z,1.83
2023-03-27T18:56:00.625Z,2.27
2023-03-27T18:58:29.237Z,1.73
2023-03-27T19:00:57.086Z,1.50
2023-03-27T19:03:26.990Z,2.30
2023-03-27T19:05:54.422Z,1.90
2023-03-27T19:08:22.257Z,1.63
2023-03-27T19:10:49.386Z,1.70
2023-03-27T19:13:16.384Z,1.60
2023-03-27T19:15:43.837Z,1.73
2023-03-27T19:18:11.306Z,1.60
2023-03-27T19:20:38.457Z,1.63
2023-03-27T19:23:05.561Z,1.40
2023-03-27T19:25:35.580Z,1.77
2023-03-27T19:28:04.108Z,1.33
2023-03-27T19:30:31.493Z,1.43
2023-03-27T19:32:58.885Z,1.67
2023-03-27T19:35:26.778Z,1.57
2023-03-27T19:37:57.536Z,2.27
2023-03-27T19:40:24.382Z,2.00
2023-03-27T19:42:51.707Z,2.13
2023-03-27T19:45:18.818Z,2.50
2023-03-27T19:47:45.900Z,2.70
2023-03-27T19:50:14.759Z,2.00
2023-03-27T19:52:42.695Z,2.13
2023-03-27T19:55:09.874Z,1.87
2023-03-27T19:57:36.708Z,2.30
2023-03-27T20:00:09.699Z,2.30
2023-03-27T20:02:37.176Z,2.07
2023-03-27T20:05:04.367Z,2.10
2023-03-27T20:07:31.543Z,2.00
2023-03-27T20:09:59.207Z,1.70
2023-03-27T20:12:26.131Z,1.77
2023-03-27T20:15:07.080Z,1.77
2023-03-27T20:17:41.178Z,1.80
2023-03-27T20:20:12.379Z,1.77
2023-03-27T20:22:54.094Z,1.97
2023-03-27T20:25:24.043Z,1.67
2023-03-27T20:27:53.647Z,1.87
2023-03-27T20:30:20.621Z,1.80
2023-03-27T20:32:47.479Z,1.80
2023-03-27T20:35:23.650Z,2.20
2023-03-27T20:37:56.642Z,2.50
2023-03-27T20:40:25.012Z,1.90
2023-03-27T20:43:03.702Z,1.87
2023-03-27T20:45:31.440Z,2.13
2023-03-27T20:48:03.478Z,1.70
2023-03-27T20:50:31.830Z,1.70
2023-03-27T20:52:58.800Z,2.10
2023-03-27T20:55:33.615Z,1.93
2023-03-27T20:58:03.380Z,2.40
2023-03-27T21:00:30.241Z,2.93
2023-03-27T21:02:57.259Z,2.70
2023-03-27T21:05:24.265Z,2.50
2023-03-27T21:07:52.904Z,2.57
2023-03-27T21:10:23.169Z,3.03
2023-03-27T21:12:51.359Z,2.73
2023-03-27T21:15:18.538Z,2.90
2023-03-27T21:17:45.598Z,2.93
2023-03-27T21:20:12.666Z,2.50
2023-03-27T21:22:39.469Z,2.77
2023-03-27T21:25:06.973Z,2.40
2023-03-27T21:27:33.767Z,3.00
2023-03-27T21:30:00.618Z,2.50
2023-03-27T21:32:27.757Z,2.87
2023-03-27T21:34:54.727Z,2.57
2023-03-27T21:37:24.184Z,2.33
2023-03-27T21:39:52.588Z,2.07
2023-03-27T21:42:21.909Z,3.20
2023-03-27T21:44:53.739Z,2.70
2023-03-27T21:47:23.042Z,2.50
2023-03-27T21:49:49.887Z,2.57
2023-03-27T21:52:17.070Z,3.20
2023-03-27T21:54:53.161Z,2.53
2023-03-27T21:57:29.161Z,2.27
2023-03-27T21:59:57.100Z,2.23
2023-03-27T22:02:24.106Z,2.10
2023-03-27T22:04:51.138Z,2.03
2023-03-27T22:07:18.008Z,2.57
2023-03-27T22:09:45.435Z,1.40
2023-03-27T22:12:12.316Z,1.23
2023-03-27T22:14:39.381Z,1.00
2023-03-27T22:17:06.377Z,1.50
2023-03-27T22:19:33.463Z,1.40
2023-03-27T22:22:01.518Z,1.80
2023-03-27T22:24:29.133Z,1.57
2023-03-27T22:26:57.214Z,1.53
2023-03-27T22:29:24.122Z,1.50
2023-03-27T22:31:51.197Z,0.97
2023-03-27T22:34:18.692Z,1.40
2023-03-27T22:36:45.675Z,0.80
2023-03-27T22:39:12.628Z,1.00
2023-03-27T22:41:39.709Z,1.00
2023-03-27T22:44:06.657Z,1.00
2023-03-27T22:46:34.062Z,0.70
2023-03-27T22:49:00.996Z,1.00
2023-03-27T22:51:32.578Z,1.13
2023-03-27T22:53:59.585Z,1.30
2023-03-27T22:56:26.555Z,1.60
2023-03-27T22:58:53.516Z,1.43
2023-03-27T23:01:20.549Z,1.20
2023-03-27T23:03:47.597Z,1.67
2023-03-27T23:06:23.517Z,1.70
2023-03-27T23:08:51.469Z,1.40
2023-03-27T23:11:19.762Z,1.50
2023-03-27T23:13:47.360Z,1.20
2023-03-27T23:16:14.517Z,2.00
2023-03-27T23:18:41.847Z,1.50
2023-03-27T23:21:11.263Z,1.97
2023-03-27T23:23:39.271Z,1.60
2023-03-27T23:26:07.503Z,1.60
2023-03-27T23:28:36.583Z,1.10
2023-03-27T23:31:06.422Z,1.97
2023-03-27T23:33:37.511Z,1.33
2023-03-27T23:36:10.478Z,1.80
2023-03-27T23:38:38.112Z,1.40
2023-03-27T23:41:06.820Z,1.50
2023-03-27T23:43:33.912Z,1.40
2023-03-27T23:46:05.700Z,1.40
2023-03-27T23:48:32.572Z,1.30
2023-03-27T23:50:59.392Z,1.53
2023-03-27T23:53:28.675Z,1.57
2023-03-27T23:55:57.874Z,1.83
2023-03-27T23:58:32.743Z,1.43
